RPB7251 SKCL-SKBO
Flight info
| Callsign | RPB7251 |
|---|---|
| Flight time | 0h 31m |
| Altitude | 23000 |
| Route | ULQ1K ULQ W1 TOLIM TOLI5E |
| Aircraft | B738/M-SDE3FGHIRWY/S |
Departure
| Time | 2026-05-03 20:53 |
|---|---|
| Airport | Alfonso Bonilla Aragon International Airport (SKCL) |
Arrival
| Time | 2026-05-03 21:24 |
|---|---|
| Airport | El Dorado International Airport (SKBO) |
| Time | Latitude | Longitude | Altitude | Speed | Heading |
|---|---|---|---|---|---|
| 2026-05-03 20:23 | 3.53644 | -76.38609 | 3162 ft | 0 kts | 278° |
| 2026-05-03 20:43 | 3.53644 | -76.38604 | 3162 ft | 4 kts | 278° |
| 2026-05-03 20:43 | 3.53639 | -76.38577 | 3163 ft | 4 kts | 279° |
| 2026-05-03 20:43 | 3.53635 | -76.38550 | 3162 ft | 4 kts | 279° |
| 2026-05-03 20:44 | 3.53632 | -76.38530 | 3162 ft | 4 kts | 240° |
| 2026-05-03 20:44 | 3.53651 | -76.38520 | 3162 ft | 4 kts | 188° |
| 2026-05-03 20:44 | 3.53677 | -76.38516 | 3162 ft | 4 kts | 183° |
| 2026-05-03 20:44 | 3.53703 | -76.38519 | 3162 ft | 4 kts | 155° |
| 2026-05-03 20:45 | 3.53726 | -76.38533 | 3162 ft | 4 kts | 140° |
| 2026-05-03 20:45 | 3.53728 | -76.38535 | 3162 ft | 0 kts | 140° |
| 2026-05-03 20:49 | 3.53725 | -76.38532 | 3162 ft | 2 kts | 140° |
| 2026-05-03 20:50 | 3.53690 | -76.38508 | 3163 ft | 10 kts | 147° |
| 2026-05-03 20:50 | 3.53617 | -76.38461 | 3161 ft | 14 kts | 157° |
| 2026-05-03 20:50 | 3.53501 | -76.38473 | 3161 ft | 19 kts | 191° |
| 2026-05-03 20:50 | 3.53366 | -76.38496 | 3161 ft | 20 kts | 189° |
| 2026-05-03 20:51 | 3.53215 | -76.38522 | 3160 ft | 23 kts | 190° |
| 2026-05-03 20:51 | 3.53059 | -76.38550 | 3163 ft | 22 kts | 190° |
| 2026-05-03 20:51 | 3.52961 | -76.38524 | 3161 ft | 8 kts | 111° |
| 2026-05-03 20:51 | 3.52956 | -76.38502 | 3160 ft | 1 kts | 102° |
| 2026-05-03 20:52 | 3.52955 | -76.38498 | 3160 ft | 1 kts | 99° |
| 2026-05-03 20:52 | 3.52961 | -76.38473 | 3160 ft | 7 kts | 61° |
| 2026-05-03 20:52 | 3.53010 | -76.38410 | 3160 ft | 17 kts | 44° |
| 2026-05-03 20:52 | 3.53336 | -76.38337 | 3160 ft | 83 kts | 9° |
| 2026-05-03 20:53 | 3.54121 | -76.38201 | 3168 ft | 144 kts | 10° |
| 2026-05-03 20:53 | 3.55269 | -76.38005 | 3208 ft | 191 kts | 9° |
| 2026-05-03 20:53 | 3.56621 | -76.37772 | 3899 ft | 197 kts | 10° |
| 2026-05-03 20:53 | 3.57962 | -76.37531 | 4760 ft | 201 kts | 9° |
| 2026-05-03 20:54 | 3.59407 | -76.37297 | 5198 ft | 216 kts | 9° |
| 2026-05-03 20:54 | 3.62420 | -76.36761 | 6449 ft | 222 kts | 8° |
| 2026-05-03 20:54 | 3.63952 | -76.36483 | 7038 ft | 229 kts | 10° |
| 2026-05-03 20:55 | 3.65548 | -76.36047 | 7378 ft | 249 kts | 17° |
| 2026-05-03 20:55 | 3.67277 | -76.35484 | 7558 ft | 275 kts | 17° |
| 2026-05-03 20:55 | 3.69178 | -76.34879 | 7931 ft | 293 kts | 17° |
| 2026-05-03 20:55 | 3.71147 | -76.34255 | 8617 ft | 300 kts | 17° |
| 2026-05-03 20:56 | 3.73155 | -76.33621 | 9363 ft | 304 kts | 17° |
| 2026-05-03 20:56 | 3.75180 | -76.32983 | 10142 ft | 305 kts | 17° |
| 2026-05-03 20:56 | 3.77209 | -76.32345 | 10956 ft | 306 kts | 18° |
| 2026-05-03 20:56 | 3.79241 | -76.31708 | 11756 ft | 306 kts | 18° |
| 2026-05-03 20:57 | 3.81201 | -76.31096 | 12451 ft | 309 kts | 18° |
| 2026-05-03 20:57 | 3.83343 | -76.30426 | 13202 ft | 312 kts | 18° |
| 2026-05-03 20:57 | 3.85446 | -76.29769 | 13641 ft | 326 kts | 18° |
| 2026-05-03 20:57 | 3.87655 | -76.29077 | 13781 ft | 347 kts | 18° |
| 2026-05-03 20:58 | 3.90020 | -76.28336 | 13927 ft | 366 kts | 18° |
| 2026-05-03 20:58 | 3.92509 | -76.27558 | 14074 ft | 382 kts | 18° |
| 2026-05-03 20:58 | 3.95074 | -76.26757 | 14440 ft | 390 kts | 18° |
| 2026-05-03 20:58 | 3.97678 | -76.25944 | 14990 ft | 393 kts | 18° |
| 2026-05-03 20:59 | 4.00295 | -76.25126 | 15569 ft | 394 kts | 19° |
| 2026-05-03 20:59 | 4.02929 | -76.24303 | 16079 ft | 398 kts | 19° |
| 2026-05-03 20:59 | 4.05578 | -76.23469 | 16568 ft | 401 kts | 20° |
| 2026-05-03 20:59 | 4.08037 | -76.22179 | 17002 ft | 401 kts | 40° |
| 2026-05-03 21:00 | 4.09938 | -76.20150 | 17501 ft | 399 kts | 58° |
| 2026-05-03 21:00 | 4.10807 | -76.18538 | 17822 ft | 398 kts | 68° |
| 2026-05-03 21:00 | 4.12160 | -76.15071 | 18472 ft | 401 kts | 71° |
| 2026-05-03 21:00 | 4.13130 | -76.12439 | 18867 ft | 405 kts | 71° |
| 2026-05-03 21:01 | 4.14111 | -76.09788 | 19288 ft | 407 kts | 71° |
| 2026-05-03 21:01 | 4.15110 | -76.07133 | 19723 ft | 409 kts | 70° |
| 2026-05-03 21:01 | 4.16116 | -76.04496 | 20118 ft | 411 kts | 70° |
| 2026-05-03 21:01 | 4.17151 | -76.01807 | 20543 ft | 413 kts | 70° |
| 2026-05-03 21:02 | 4.18192 | -75.99109 | 20891 ft | 416 kts | 70° |
| 2026-05-03 21:02 | 4.19241 | -75.96393 | 21255 ft | 419 kts | 70° |
| 2026-05-03 21:02 | 4.20295 | -75.93665 | 21635 ft | 420 kts | 70° |
| 2026-05-03 21:02 | 4.21351 | -75.90932 | 21978 ft | 422 kts | 70° |
| 2026-05-03 21:03 | 4.22426 | -75.88180 | 22259 ft | 425 kts | 70° |
| 2026-05-03 21:03 | 4.23514 | -75.85419 | 22580 ft | 427 kts | 70° |
| 2026-05-03 21:03 | 4.24610 | -75.82643 | 22943 ft | 428 kts | 69° |
| 2026-05-03 21:03 | 4.25708 | -75.79863 | 23238 ft | 430 kts | 69° |
| 2026-05-03 21:04 | 4.26810 | -75.77068 | 23483 ft | 433 kts | 69° |
| 2026-05-03 21:04 | 4.27903 | -75.74293 | 23787 ft | 434 kts | 69° |
| 2026-05-03 21:04 | 4.29012 | -75.71470 | 24089 ft | 435 kts | 69° |
| 2026-05-03 21:04 | 4.30121 | -75.68651 | 24443 ft | 436 kts | 69° |
| 2026-05-03 21:05 | 4.31235 | -75.65818 | 24713 ft | 438 kts | 69° |
| 2026-05-03 21:05 | 4.32354 | -75.62974 | 24946 ft | 439 kts | 69° |
| 2026-05-03 21:05 | 4.33471 | -75.60133 | 25002 ft | 441 kts | 69° |
| 2026-05-03 21:05 | 4.34603 | -75.57253 | 25017 ft | 446 kts | 69° |
| 2026-05-03 21:06 | 4.35744 | -75.54350 | 25007 ft | 450 kts | 69° |
| 2026-05-03 21:06 | 4.36898 | -75.51415 | 25015 ft | 454 kts | 69° |
| 2026-05-03 21:06 | 4.38114 | -75.48476 | 24986 ft | 458 kts | 66° |
| 2026-05-03 21:06 | 4.39574 | -75.45625 | 24998 ft | 461 kts | 62° |
| 2026-05-03 21:07 | 4.41156 | -75.42847 | 24989 ft | 456 kts | 60° |
| 2026-05-03 21:07 | 4.42750 | -75.40132 | 24974 ft | 447 kts | 60° |
| 2026-05-03 21:07 | 4.44310 | -75.37456 | 24988 ft | 443 kts | 61° |
| 2026-05-03 21:07 | 4.45845 | -75.34781 | 24976 ft | 443 kts | 62° |
| 2026-05-03 21:08 | 4.47368 | -75.32085 | 24669 ft | 447 kts | 62° |
| 2026-05-03 21:08 | 4.48880 | -75.29378 | 24186 ft | 442 kts | 62° |
| 2026-05-03 21:08 | 4.50368 | -75.26702 | 23652 ft | 437 kts | 62° |
| 2026-05-03 21:08 | 4.51835 | -75.24056 | 23070 ft | 432 kts | 62° |
| 2026-05-03 21:09 | 4.53290 | -75.21432 | 22511 ft | 428 kts | 62° |
| 2026-05-03 21:09 | 4.54731 | -75.18837 | 21957 ft | 424 kts | 62° |
| 2026-05-03 21:09 | 4.56147 | -75.16287 | 21736 ft | 413 kts | 62° |
| 2026-05-03 21:09 | 4.57526 | -75.13806 | 21545 ft | 401 kts | 62° |
| 2026-05-03 21:10 | 4.58865 | -75.11395 | 21374 ft | 391 kts | 62° |
| 2026-05-03 21:10 | 4.60169 | -75.09050 | 21205 ft | 381 kts | 62° |
| 2026-05-03 21:10 | 4.61446 | -75.06750 | 20860 ft | 376 kts | 62° |
| 2026-05-03 21:10 | 4.62712 | -75.04472 | 20452 ft | 373 kts | 62° |
| 2026-05-03 21:11 | 4.63973 | -75.02202 | 20028 ft | 371 kts | 62° |
| 2026-05-03 21:11 | 4.65208 | -74.99978 | 19627 ft | 369 kts | 62° |
| 2026-05-03 21:11 | 4.66468 | -74.97708 | 19213 ft | 367 kts | 62° |
| 2026-05-03 21:11 | 4.67699 | -74.95491 | 18940 ft | 360 kts | 62° |
| 2026-05-03 21:12 | 4.68893 | -74.93342 | 18562 ft | 356 kts | 62° |
| 2026-05-03 21:12 | 4.70075 | -74.91213 | 18350 ft | 343 kts | 62° |
| 2026-05-03 21:12 | 4.71212 | -74.89165 | 18181 ft | 328 kts | 63° |
| 2026-05-03 21:12 | 4.72297 | -74.87209 | 18025 ft | 317 kts | 63° |
| 2026-05-03 21:13 | 4.73361 | -74.85289 | 17684 ft | 317 kts | 63° |
| 2026-05-03 21:13 | 4.74435 | -74.83352 | 17370 ft | 315 kts | 62° |
| 2026-05-03 21:13 | 4.75495 | -74.81441 | 17048 ft | 314 kts | 63° |
| 2026-05-03 21:13 | 4.76554 | -74.79531 | 16718 ft | 312 kts | 62° |
| 2026-05-03 21:14 | 4.77515 | -74.77594 | 16474 ft | 307 kts | 69° |
| 2026-05-03 21:14 | 4.78294 | -74.75619 | 16264 ft | 302 kts | 71° |
| 2026-05-03 21:14 | 4.79020 | -74.73649 | 16068 ft | 299 kts | 71° |
| 2026-05-03 21:14 | 4.79737 | -74.71698 | 15887 ft | 297 kts | 71° |
| 2026-05-03 21:15 | 4.80458 | -74.69762 | 15677 ft | 295 kts | 70° |
| 2026-05-03 21:15 | 4.81182 | -74.67842 | 15493 ft | 295 kts | 70° |
| 2026-05-03 21:15 | 4.81917 | -74.65909 | 15296 ft | 298 kts | 70° |
| 2026-05-03 21:15 | 4.82662 | -74.63957 | 15099 ft | 301 kts | 70° |
| 2026-05-03 21:16 | 4.83416 | -74.61993 | 14866 ft | 302 kts | 70° |
| 2026-05-03 21:16 | 4.84161 | -74.60053 | 14645 ft | 302 kts | 70° |
| 2026-05-03 21:16 | 4.84917 | -74.58089 | 14438 ft | 301 kts | 70° |
| 2026-05-03 21:16 | 4.85667 | -74.56140 | 14229 ft | 300 kts | 70° |
| 2026-05-03 21:17 | 4.86420 | -74.54186 | 14014 ft | 300 kts | 69° |
| 2026-05-03 21:17 | 4.86928 | -74.52868 | 13874 ft | 299 kts | 69° |
| 2026-05-03 21:17 | 4.87915 | -74.50303 | 13618 ft | 297 kts | 69° |
| 2026-05-03 21:17 | 4.88659 | -74.48371 | 13420 ft | 296 kts | 69° |
| 2026-05-03 21:18 | 4.89399 | -74.46450 | 13216 ft | 296 kts | 69° |
| 2026-05-03 21:18 | 4.90128 | -74.44532 | 13012 ft | 292 kts | 73° |
| 2026-05-03 21:18 | 4.90336 | -74.42549 | 12826 ft | 284 kts | 98° |
| 2026-05-03 21:18 | 4.89725 | -74.40681 | 12488 ft | 285 kts | 119° |
| 2026-05-03 21:19 | 4.88469 | -74.39149 | 12159 ft | 287 kts | 137° |
| 2026-05-03 21:19 | 4.86949 | -74.37855 | 11867 ft | 286 kts | 139° |
| 2026-05-03 21:19 | 4.85626 | -74.36429 | 11853 ft | 273 kts | 126° |
| 2026-05-03 21:19 | 4.84541 | -74.34919 | 11862 ft | 260 kts | 124° |
| 2026-05-03 21:20 | 4.83515 | -74.33497 | 11861 ft | 244 kts | 125° |
| 2026-05-03 21:20 | 4.82538 | -74.32187 | 11883 ft | 225 kts | 126° |
| 2026-05-03 21:20 | 4.81592 | -74.30923 | 11718 ft | 228 kts | 126° |
| 2026-05-03 21:20 | 4.80630 | -74.29649 | 11437 ft | 230 kts | 126° |
| 2026-05-03 21:21 | 4.79682 | -74.28391 | 11128 ft | 220 kts | 127° |
| 2026-05-03 21:21 | 4.78784 | -74.27196 | 10857 ft | 208 kts | 126° |
| 2026-05-03 21:21 | 4.77925 | -74.26054 | 10571 ft | 203 kts | 127° |
| 2026-05-03 21:21 | 4.77084 | -74.24939 | 10332 ft | 197 kts | 127° |
| 2026-05-03 21:22 | 4.76268 | -74.23852 | 10047 ft | 193 kts | 128° |
| 2026-05-03 21:22 | 4.75456 | -74.22773 | 9800 ft | 194 kts | 129° |
| 2026-05-03 21:22 | 4.74675 | -74.21735 | 9564 ft | 187 kts | 129° |
| 2026-05-03 21:22 | 4.73878 | -74.20676 | 9274 ft | 188 kts | 129° |
| 2026-05-03 21:23 | 4.73100 | -74.19642 | 9045 ft | 186 kts | 129° |
| 2026-05-03 21:23 | 4.72318 | -74.18603 | 8805 ft | 187 kts | 129° |
| 2026-05-03 21:23 | 4.71544 | -74.17573 | 8561 ft | 186 kts | 128° |
| 2026-05-03 21:23 | 4.70776 | -74.16552 | 8366 ft | 177 kts | 128° |
| 2026-05-03 21:24 | 4.70152 | -74.15730 | 8363 ft | 117 kts | 127° |
| 2026-05-03 21:24 | 4.69793 | -74.15256 | 8364 ft | 53 kts | 127° |
| 2026-05-03 21:24 | 4.69720 | -74.15080 | 8364 ft | 29 kts | 100° |
| 2026-05-03 21:24 | 4.69705 | -74.14963 | 8363 ft | 7 kts | 96° |
| 2026-05-03 21:25 | 4.69699 | -74.14915 | 8364 ft | 7 kts | 97° |
| 2026-05-03 21:25 | 4.69703 | -74.14868 | 8364 ft | 7 kts | 73° |
| 2026-05-03 21:25 | 4.69736 | -74.14821 | 8364 ft | 8 kts | 42° |
| 2026-05-03 21:25 | 4.69782 | -74.14786 | 8365 ft | 8 kts | 35° |
| 2026-05-03 21:26 | 4.69827 | -74.14752 | 8365 ft | 8 kts | 37° |
| 2026-05-03 21:26 | 4.69872 | -74.14718 | 8365 ft | 9 kts | 37° |
| 2026-05-03 21:26 | 4.69927 | -74.14677 | 8365 ft | 11 kts | 37° |
| 2026-05-03 21:26 | 4.69994 | -74.14626 | 8365 ft | 13 kts | 37° |
| 2026-05-03 21:27 | 4.70039 | -74.14590 | 8365 ft | 5 kts | 52° |
| 2026-05-03 21:27 | 4.70028 | -74.14555 | 8365 ft | 6 kts | 126° |
| 2026-05-03 21:27 | 4.69996 | -74.14513 | 8365 ft | 9 kts | 127° |
| 2026-05-03 21:27 | 4.69958 | -74.14462 | 8365 ft | 9 kts | 127° |
| 2026-05-03 21:28 | 4.69919 | -74.14411 | 8365 ft | 9 kts | 127° |
| 2026-05-03 21:28 | 4.69882 | -74.14362 | 8365 ft | 9 kts | 127° |
| 2026-05-03 21:28 | 4.69851 | -74.14329 | 8365 ft | 6 kts | 183° |
| 2026-05-03 21:28 | 4.69820 | -74.14350 | 8365 ft | 2 kts | 223° |
| 2026-05-03 21:29 | 4.69814 | -74.14357 | 8365 ft | 2 kts | 226° |
| 2026-05-03 21:29 | 4.69809 | -74.14362 | 8365 ft | 0 kts | 226° |